»·PEaware :: HYDRA63 KMAF-KMAF

HYDRA63 :: KMAF-KMAF

FLIGHT INFORMATION

Flight Status: Arrived
Operator: Unknown
More flights by this operator :: More flights under this callsign
Pilot: 47th FTW Laughlin (28783)
Aircraft: BEECH AIRCRAFT T-6A TEXAN
(TEX2)
More flights by this aircraft type
Origin: KMAF Midland Intl
United States
Destination: KMAF Midland Intl
United States
More flights between these airports :: More routes between these airports
Route: +DEWEY V68 SJT KSJT/D0+15 SJT STEEP V68
File this flight plan on PilotEdge
Remarks: RADAR DELAY FOR VOR RWY 21 KSJT, RETURN LEG TO KMAF FLOWN AT 8000, VTF FOR ILS RWY 10 KMAF
Altitude:
(Current/Filed)
7,000ft
Speed:
(Current/Filed)
0kts
Departed: 11-Aug-20 08:03 AM
Arrived: 11-Aug-20 09:18 AM
Distance/Time
Traveled:
0nm/1:15
Distance/Time
To Go:
Arrived

Flight Plot

Page will automatically refresh every two minutes.

Flight plan parsing failed; only flown route is shown


Map Options




Map Legend


Flown Route
Filed Route
Departure Airport
Arrival Airport
Navaid (VOR, NDB)
Fix

Horizontal Profiles

Position Reports

Time Latitude Longitude Heading Altitude Ground
Speed
11-Aug-20 07:52 31.941487 -102.207010 173 2875ft 0kts
11-Aug-20 07:52 31.941487 -102.207010 173 2875ft 0kts
11-Aug-20 07:54 31.941487 -102.207010 173 2875ft 0kts
11-Aug-20 07:54 31.941487 -102.207010 173 2875ft 0kts
11-Aug-20 07:55 31.941328 -102.206960 138 2875ft 5kts
11-Aug-20 07:57 31.941305 -102.206329 83 2875ft 6kts
11-Aug-20 07:57 31.942992 -102.205914 353 2875ft 10kts
11-Aug-20 07:58 31.948090 -102.206467 354 2875ft 18kts
11-Aug-20 07:59 31.951922 -102.206868 353 2875ft 8kts
11-Aug-20 08:00 31.957336 -102.207245 355 2875ft 20kts
11-Aug-20 08:01 31.959214 -102.206503 85 2875ft 0kts
11-Aug-20 08:02 31.955795 -102.205156 172 2876ft 87kts
11-Aug-20 08:03 31.916239 -102.201888 173 5121ft 174kts
11-Aug-20 08:04 31.863535 -102.194760 160 6965ft 230kts
11-Aug-20 08:05 31.852463 -102.136491 74 6951ft 266kts
11-Aug-20 08:06 31.873050 -102.050944 78 6858ft 271kts
11-Aug-20 08:07 31.887452 -101.964532 86 6991ft 265kts
11-Aug-20 08:08 31.864844 -101.882318 114 6938ft 265kts
11-Aug-20 08:09 31.832063 -101.804745 119 6925ft 266kts
11-Aug-20 08:10 31.794230 -101.729937 122 6917ft 265kts
11-Aug-20 08:11 31.758496 -101.653758 119 6830ft 267kts
11-Aug-20 08:12 31.719514 -101.580688 124 6890ft 266kts
11-Aug-20 08:13 31.687063 -101.503041 114 6877ft 268kts
11-Aug-20 08:14 31.652961 -101.425523 119 6878ft 267kts
11-Aug-20 08:15 31.613434 -101.352395 121 6943ft 263kts
11-Aug-20 08:16 31.608792 -101.266717 88 6824ft 269kts
11-Aug-20 08:17 31.607964 -101.179295 96 6907ft 267kts
11-Aug-20 08:18 31.598298 -101.095645 104 5789ft 238kts
11-Aug-20 08:19 31.583652 -101.022857 98 4947ft 232kts
11-Aug-20 08:20 31.570476 -100.944280 106 5035ft 248kts
11-Aug-20 08:21 31.555989 -100.863456 98 5063ft 252kts
11-Aug-20 08:22 31.534855 -100.787539 112 3986ft 232kts
11-Aug-20 08:23 31.511775 -100.731033 122 3839ft 171kts
11-Aug-20 08:24 31.486534 -100.684456 120 4076ft 176kts
11-Aug-20 08:25 31.460037 -100.633949 113 4083ft 182kts
11-Aug-20 08:26 31.430217 -100.586153 117 3956ft 190kts
11-Aug-20 08:27 31.406333 -100.533544 114 4115ft 182kts
11-Aug-20 08:28 31.384395 -100.478172 112 4084ft 182kts
11-Aug-20 08:29 31.384715 -100.426228 89 4019ft 185kts
11-Aug-20 08:30 31.391103 -100.402423 66 3644ft 193kts
11-Aug-20 08:31 31.396140 -100.362456 107 3779ft 147kts
11-Aug-20 08:32 31.391510 -100.315412 48 3822ft 163kts
11-Aug-20 08:33 31.408496 -100.343834 243 3248ft 150kts
11-Aug-20 08:34 31.397553 -100.387055 253 2504ft 122kts
11-Aug-20 08:35 31.383919 -100.424569 234 2681ft 128kts
11-Aug-20 08:36 31.371665 -100.465847 229 2562ft 129kts
11-Aug-20 08:37 31.352945 -100.497120 224 2389ft 130kts
11-Aug-20 08:38 31.320917 -100.542344 226 3955ft 236kts
11-Aug-20 08:39 31.301122 -100.610130 310 5730ft 239kts
11-Aug-20 08:40 31.358774 -100.640003 344 7938ft 259kts
11-Aug-20 08:41 31.431730 -100.657074 352 7982ft 285kts
11-Aug-20 08:42 31.465227 -100.667746 325 7976ft 288kts
11-Aug-20 08:43 31.501747 -100.750637 293 7967ft 290kts
11-Aug-20 08:44 31.534672 -100.836503 296 7884ft 288kts
11-Aug-20 08:45 31.577408 -100.915179 302 7929ft 285kts
11-Aug-20 08:46 31.611719 -100.999249 296 7940ft 285kts
11-Aug-20 08:47 31.650802 -101.080830 300 7941ft 285kts
11-Aug-20 08:48 31.687984 -101.163076 295 7917ft 286kts
11-Aug-20 08:49 31.720639 -101.248182 291 7911ft 286kts
11-Aug-20 08:50 31.745336 -101.336690 283 7997ft 284kts
11-Aug-20 08:51 31.766159 -101.426595 286 7958ft 287kts
11-Aug-20 08:52 31.796061 -101.513655 290 7964ft 285kts
11-Aug-20 08:53 31.823568 -101.601559 292 7913ft 288kts
11-Aug-20 08:54 31.853482 -101.688540 291 7988ft 284kts
11-Aug-20 08:55 31.887454 -101.773848 293 7773ft 285kts
11-Aug-20 08:56 31.912582 -101.855910 286 5586ft 264kts
11-Aug-20 08:57 31.933421 -101.936455 285 4764ft 250kts
11-Aug-20 08:58 31.957650 -102.014641 290 4959ft 260kts
11-Aug-20 08:59 31.982292 -102.095783 290 4900ft 264kts
11-Aug-20 09:00 32.003076 -102.170270 288 4930ft 211kts
11-Aug-20 09:01 32.024250 -102.229209 294 4895ft 188kts
11-Aug-20 09:02 32.045361 -102.283478 296 5011ft 176kts
11-Aug-20 09:03 32.071464 -102.332686 297 5034ft 176kts
11-Aug-20 09:04 32.095673 -102.383880 299 4992ft 177kts
11-Aug-20 09:05 32.119329 -102.434749 297 5028ft 177kts
11-Aug-20 09:06 32.135570 -102.467046 301 5000ft 178kts
11-Aug-20 09:07 32.140624 -102.511960 193 4950ft 162kts
11-Aug-20 09:08 32.097449 -102.503317 166 5003ft 157kts
11-Aug-20 09:09 32.056195 -102.474971 126 4909ft 198kts
11-Aug-20 09:10 32.026883 -102.424796 122 4807ft 171kts
11-Aug-20 09:11 32.007628 -102.378074 109 4956ft 122kts
11-Aug-20 09:12 31.995420 -102.344823 118 4904ft 108kts
11-Aug-20 09:13 31.983060 -102.310345 111 4602ft 109kts
11-Aug-20 09:14 31.970809 -102.278867 112 4029ft 101kts
11-Aug-20 09:15 31.958979 -102.247101 109 3481ft 111kts
11-Aug-20 09:16 31.946808 -102.214173 112 2886ft 102kts
11-Aug-20 09:17 31.941715 -102.200669 130 2875ft 18kts
11-Aug-20 09:18 31.939334 -102.199301 177 2875ft 13kts
11-Aug-20 09:19 31.939334 -102.199301 177 2875ft 13kts
11-Aug-20 09:20 31.939334 -102.199301 177 2875ft 13kts
11-Aug-20 09:21 31.939334 -102.199301 177 2875ft 13kts
11-Aug-20 09:22 31.939334 -102.199301 177 2875ft 13kts
11-Aug-20 09:23 31.939334 -102.199301 177 2875ft 13kts
11-Aug-20 09:24 31.939334 -102.199301 177 2875ft 13kts
11-Aug-20 09:25 31.939334 -102.199301 177 2875ft 13kts
11-Aug-20 09:26 31.939334 -102.199301 177 2875ft 13kts
11-Aug-20 09:27 31.939334 -102.199301 177 2875ft 13kts
11-Aug-20 09:28 31.939334 -102.199301 177 2875ft 13kts
11-Aug-20 09:29 31.939334 -102.199301 177 2875ft 13kts
11-Aug-20 09:30 31.939334 -102.199301 177 2875ft 13kts
11-Aug-20 09:31 31.939334 -102.199301 177 2875ft 13kts
11-Aug-20 09:32 31.939334 -102.199301 177 2875ft 13kts

Navigation Log

Ident Type
Flight plan parsing failed, navigation log unavailable